sensor_id;sensor_type;location;lat;lon;timestamp;P1;durP1;ratioP1;P2;durP2;ratioP2
60014;SDS011;45867;52.480;6.056;2023-05-19T00:00:58;11.15;;;4.47;;
60014;SDS011;45867;52.480;6.056;2023-05-19T00:03:24;15.32;;;4.68;;
60014;SDS011;45867;52.480;6.056;2023-05-19T00:05:51;12.07;;;4.55;;
60014;SDS011;45867;52.480;6.056;2023-05-19T00:08:18;15.43;;;4.32;;
60014;SDS011;45867;52.480;6.056;2023-05-19T00:10:44;13.48;;;4.63;;
60014;SDS011;45867;52.480;6.056;2023-05-19T00:13:10;12.75;;;4.80;;
60014;SDS011;45867;52.480;6.056;2023-05-19T00:15:35;13.13;;;4.97;;
60014;SDS011;45867;52.480;6.056;2023-05-19T00:18:01;16.60;;;5.05;;
60014;SDS011;45867;52.480;6.056;2023-05-19T00:20:26;15.55;;;5.10;;
60014;SDS011;45867;52.480;6.056;2023-05-19T00:22:51;14.35;;;4.70;;
60014;SDS011;45867;52.480;6.056;2023-05-19T00:25:17;12.70;;;4.80;;
60014;SDS011;45867;52.480;6.056;2023-05-19T00:27:45;13.43;;;4.97;;
60014;SDS011;45867;52.480;6.056;2023-05-19T00:30:10;16.23;;;4.80;;
60014;SDS011;45867;52.480;6.056;2023-05-19T00:32:36;21.20;;;4.93;;
60014;SDS011;45867;52.480;6.056;2023-05-19T00:35:01;11.63;;;4.85;;
60014;SDS011;45867;52.480;6.056;2023-05-19T00:37:26;14.20;;;5.55;;
60014;SDS011;45867;52.480;6.056;2023-05-19T00:39:52;21.27;;;5.22;;
60014;SDS011;45867;52.480;6.056;2023-05-19T00:42:17;15.25;;;5.20;;
60014;SDS011;45867;52.480;6.056;2023-05-19T00:44:42;10.93;;;5.28;;
60014;SDS011;45867;52.480;6.056;2023-05-19T00:47:08;11.18;;;5.13;;
60014;SDS011;45867;52.480;6.056;2023-05-19T00:49:33;14.13;;;5.47;;
60014;SDS011;45867;52.480;6.056;2023-05-19T00:52:00;21.88;;;6.22;;
60014;SDS011;45867;52.480;6.056;2023-05-19T00:54:26;9.40;;;4.85;;
60014;SDS011;45867;52.480;6.056;2023-05-19T00:56:53;17.63;;;5.68;;
60014;SDS011;45867;52.480;6.056;2023-05-19T00:59:19;10.60;;;5.75;;
60014;SDS011;45867;52.480;6.056;2023-05-19T01:01:44;17.08;;;5.70;;
60014;SDS011;45867;52.480;6.056;2023-05-19T01:04:13;26.45;;;6.00;;
60014;SDS011;45867;52.480;6.056;2023-05-19T01:06:40;19.50;;;5.82;;
60014;SDS011;45867;52.480;6.056;2023-05-19T01:09:06;12.32;;;5.13;;
60014;SDS011;45867;52.480;6.056;2023-05-19T01:11:33;21.80;;;6.10;;
60014;SDS011;45867;52.480;6.056;2023-05-19T01:13:58;17.75;;;5.78;;
60014;SDS011;45867;52.480;6.056;2023-05-19T01:16:25;12.60;;;5.20;;
60014;SDS011;45867;52.480;6.056;2023-05-19T01:32:50;17.17;;;6.10;;
60014;SDS011;45867;52.480;6.056;2023-05-19T01:35:18;18.75;;;5.97;;
60014;SDS011;45867;52.480;6.056;2023-05-19T01:37:46;14.35;;;5.70;;
60014;SDS011;45867;52.480;6.056;2023-05-19T01:40:13;12.85;;;5.38;;
60014;SDS011;45867;52.480;6.056;2023-05-19T01:42:39;17.92;;;6.30;;
60014;SDS011;45867;52.480;6.056;2023-05-19T01:45:06;16.55;;;5.82;;
60014;SDS011;45867;52.480;6.056;2023-05-19T01:47:35;22.00;;;6.85;;
60014;SDS011;45867;52.480;6.056;2023-05-19T01:50:04;17.90;;;6.20;;
60014;SDS011;45867;52.480;6.056;2023-05-19T01:52:30;18.73;;;6.43;;
60014;SDS011;45867;52.480;6.056;2023-05-19T01:54:55;24.42;;;6.40;;
60014;SDS011;45867;52.480;6.056;2023-05-19T02:00:14;18.30;;;5.78;;
60014;SDS011;45867;52.480;6.056;2023-05-19T02:03:00;17.83;;;6.38;;
60014;SDS011;45867;52.480;6.056;2023-05-19T02:08:28;19.85;;;6.30;;
60014;SDS011;45867;52.480;6.056;2023-05-19T02:10:59;22.40;;;6.88;;
60014;SDS011;45867;52.480;6.056;2023-05-19T02:13:32;16.42;;;6.25;;
60014;SDS011;45867;52.480;6.056;2023-05-19T02:16:02;25.17;;;6.63;;
60014;SDS011;45867;52.480;6.056;2023-05-19T02:18:30;15.85;;;6.47;;
60014;SDS011;45867;52.480;6.056;2023-05-19T02:20:57;19.17;;;6.53;;
60014;SDS011;45867;52.480;6.056;2023-05-19T02:23:22;17.92;;;6.45;;
60014;SDS011;45867;52.480;6.056;2023-05-19T02:25:48;25.10;;;6.75;;
60014;SDS011;45867;52.480;6.056;2023-05-19T02:28:13;20.42;;;6.63;;
60014;SDS011;45867;52.480;6.056;2023-05-19T02:30:41;25.70;;;6.55;;
60014;SDS011;45867;52.480;6.056;2023-05-19T02:33:07;16.63;;;5.93;;
60014;SDS011;45867;52.480;6.056;2023-05-19T02:35:32;20.02;;;6.43;;
60014;SDS011;45867;52.480;6.056;2023-05-19T02:37:57;18.75;;;6.65;;
60014;SDS011;45867;52.480;6.056;2023-05-19T02:40:23;29.08;;;7.13;;
60014;SDS011;45867;52.480;6.056;2023-05-19T02:42:48;24.20;;;7.57;;
60014;SDS011;45867;52.480;6.056;2023-05-19T02:45:14;17.75;;;6.43;;
60014;SDS011;45867;52.480;6.056;2023-05-19T02:47:39;15.45;;;6.50;;
60014;SDS011;45867;52.480;6.056;2023-05-19T02:50:05;24.48;;;7.43;;
60014;SDS011;45867;52.480;6.056;2023-05-19T02:52:31;19.33;;;6.68;;
60014;SDS011;45867;52.480;6.056;2023-05-19T02:54:56;23.33;;;6.75;;
60014;SDS011;45867;52.480;6.056;2023-05-19T02:57:22;20.90;;;6.88;;
60014;SDS011;45867;52.480;6.056;2023-05-19T02:59:48;24.00;;;6.93;;
60014;SDS011;45867;52.480;6.056;2023-05-19T03:02:13;19.75;;;6.97;;
60014;SDS011;45867;52.480;6.056;2023-05-19T03:04:38;26.88;;;7.85;;
60014;SDS011;45867;52.480;6.056;2023-05-19T03:07:06;27.92;;;7.93;;
60014;SDS011;45867;52.480;6.056;2023-05-19T03:09:33;25.40;;;7.57;;
60014;SDS011;45867;52.480;6.056;2023-05-19T03:12:00;24.10;;;7.63;;
60014;SDS011;45867;52.480;6.056;2023-05-19T03:14:28;24.80;;;7.88;;
60014;SDS011;45867;52.480;6.056;2023-05-19T03:16:53;24.45;;;7.68;;
60014;SDS011;45867;52.480;6.056;2023-05-19T03:19:19;17.58;;;7.95;;
60014;SDS011;45867;52.480;6.056;2023-05-19T03:21:45;25.23;;;7.97;;
60014;SDS011;45867;52.480;6.056;2023-05-19T03:24:11;26.27;;;8.25;;
60014;SDS011;45867;52.480;6.056;2023-05-19T03:26:37;31.77;;;7.75;;
60014;SDS011;45867;52.480;6.056;2023-05-19T03:29:02;25.52;;;7.70;;
60014;SDS011;45867;52.480;6.056;2023-05-19T03:31:27;19.15;;;7.15;;
60014;SDS011;45867;52.480;6.056;2023-05-19T03:33:54;22.92;;;7.80;;
60014;SDS011;45867;52.480;6.056;2023-05-19T03:36:21;17.60;;;7.15;;
60014;SDS011;45867;52.480;6.056;2023-05-19T03:38:47;22.77;;;7.85;;
60014;SDS011;45867;52.480;6.056;2023-05-19T03:41:13;16.55;;;7.32;;
60014;SDS011;45867;52.480;6.056;2023-05-19T03:43:38;22.08;;;7.80;;
60014;SDS011;45867;52.480;6.056;2023-05-19T03:46:03;25.65;;;8.13;;
60014;SDS011;45867;52.480;6.056;2023-05-19T03:48:29;23.13;;;8.05;;
60014;SDS011;45867;52.480;6.056;2023-05-19T03:50:54;27.27;;;8.68;;
60014;SDS011;45867;52.480;6.056;2023-05-19T03:53:19;20.98;;;7.72;;
60014;SDS011;45867;52.480;6.056;2023-05-19T03:55:45;27.33;;;8.85;;
60014;SDS011;45867;52.480;6.056;2023-05-19T03:58:11;24.15;;;7.95;;
60014;SDS011;45867;52.480;6.056;2023-05-19T04:00:38;26.45;;;8.43;;
60014;SDS011;45867;52.480;6.056;2023-05-19T04:03:04;22.27;;;7.53;;
60014;SDS011;45867;52.480;6.056;2023-05-19T04:05:29;24.05;;;8.35;;
60014;SDS011;45867;52.480;6.056;2023-05-19T04:07:54;25.98;;;8.70;;
60014;SDS011;45867;52.480;6.056;2023-05-19T04:10:20;26.73;;;8.18;;
60014;SDS011;45867;52.480;6.056;2023-05-19T04:12:45;22.92;;;8.40;;
60014;SDS011;45867;52.480;6.056;2023-05-19T04:15:11;24.83;;;8.35;;
60014;SDS011;45867;52.480;6.056;2023-05-19T04:17:37;21.08;;;8.00;;
60014;SDS011;45867;52.480;6.056;2023-05-19T04:20:02;23.35;;;8.50;;
60014;SDS011;45867;52.480;6.056;2023-05-19T04:22:30;18.85;;;8.65;;
60014;SDS011;45867;52.480;6.056;2023-05-19T04:24:55;21.10;;;8.77;;
60014;SDS011;45867;52.480;6.056;2023-05-19T04:27:22;21.83;;;8.75;;
60014;SDS011;45867;52.480;6.056;2023-05-19T04:29:47;24.55;;;8.68;;
60014;SDS011;45867;52.480;6.056;2023-05-19T04:32:13;28.42;;;8.60;;
60014;SDS011;45867;52.480;6.056;2023-05-19T04:34:41;22.55;;;9.00;;
60014;SDS011;45867;52.480;6.056;2023-05-19T04:37:09;25.13;;;8.77;;
60014;SDS011;45867;52.480;6.056;2023-05-19T04:39:44;17.02;;;8.20;;
60014;SDS011;45867;52.480;6.056;2023-05-19T04:42:10;23.60;;;8.48;;
60014;SDS011;45867;52.480;6.056;2023-05-19T04:44:36;25.33;;;8.45;;
60014;SDS011;45867;52.480;6.056;2023-05-19T04:47:04;23.92;;;8.95;;
60014;SDS011;45867;52.480;6.056;2023-05-19T04:49:32;24.35;;;7.93;;
60014;SDS011;45867;52.480;6.056;2023-05-19T04:52:07;18.13;;;8.47;;
60014;SDS011;45867;52.480;6.056;2023-05-19T04:54:36;20.65;;;9.38;;
60014;SDS011;45867;52.480;6.056;2023-05-19T04:57:03;17.15;;;8.45;;
60014;SDS011;45867;52.480;6.056;2023-05-19T04:59:28;30.42;;;8.82;;
60014;SDS011;45867;52.480;6.056;2023-05-19T05:01:53;19.50;;;8.73;;
60014;SDS011;45867;52.480;6.056;2023-05-19T05:04:20;23.05;;;8.85;;
60014;SDS011;45867;52.480;6.056;2023-05-19T05:06:45;25.63;;;9.38;;
60014;SDS011;45867;52.480;6.056;2023-05-19T05:09:15;23.10;;;8.65;;
60014;SDS011;45867;52.480;6.056;2023-05-19T05:11:42;26.48;;;8.98;;
60014;SDS011;45867;52.480;6.056;2023-05-19T05:14:08;18.95;;;8.15;;
60014;SDS011;45867;52.480;6.056;2023-05-19T05:16:34;23.63;;;8.85;;
60014;SDS011;45867;52.480;6.056;2023-05-19T05:19:00;21.02;;;9.10;;
60014;SDS011;45867;52.480;6.056;2023-05-19T05:21:26;20.63;;;8.50;;
60014;SDS011;45867;52.480;6.056;2023-05-19T05:23:52;25.35;;;8.57;;
60014;SDS011;45867;52.480;6.056;2023-05-19T05:26:18;25.85;;;8.50;;
60014;SDS011;45867;52.480;6.056;2023-05-19T05:28:53;16.35;;;7.93;;
60014;SDS011;45867;52.480;6.056;2023-05-19T05:31:18;15.98;;;7.30;;
60014;SDS011;45867;52.480;6.056;2023-05-19T05:33:43;22.60;;;7.25;;
60014;SDS011;45867;52.480;6.056;2023-05-19T05:36:09;14.70;;;6.43;;
60014;SDS011;45867;52.480;6.056;2023-05-19T05:38:34;18.95;;;7.07;;
60014;SDS011;45867;52.480;6.056;2023-05-19T05:41:00;15.50;;;6.90;;
60014;SDS011;45867;52.480;6.056;2023-05-19T05:43:27;21.35;;;6.65;;
60014;SDS011;45867;52.480;6.056;2023-05-19T05:45:52;11.45;;;6.40;;
60014;SDS011;45867;52.480;6.056;2023-05-19T05:48:18;17.75;;;6.25;;
60014;SDS011;45867;52.480;6.056;2023-05-19T05:50:43;16.45;;;6.68;;
60014;SDS011;45867;52.480;6.056;2023-05-19T05:53:09;15.30;;;6.55;;
60014;SDS011;45867;52.480;6.056;2023-05-19T05:55:42;13.63;;;6.13;;
60014;SDS011;45867;52.480;6.056;2023-05-19T05:58:08;14.48;;;6.40;;
60014;SDS011;45867;52.480;6.056;2023-05-19T06:00:35;13.55;;;6.43;;
60014;SDS011;45867;52.480;6.056;2023-05-19T06:03:01;17.05;;;6.63;;
60014;SDS011;45867;52.480;6.056;2023-05-19T06:05:27;12.18;;;5.88;;
60014;SDS011;45867;52.480;6.056;2023-05-19T06:07:52;15.20;;;6.30;;
60014;SDS011;45867;52.480;6.056;2023-05-19T06:10:21;18.52;;;6.32;;
60014;SDS011;45867;52.480;6.056;2023-05-19T06:12:46;15.30;;;5.88;;
60014;SDS011;45867;52.480;6.056;2023-05-19T06:15:12;19.25;;;6.07;;
60014;SDS011;45867;52.480;6.056;2023-05-19T06:17:37;12.73;;;5.68;;
60014;SDS011;45867;52.480;6.056;2023-05-19T06:20:03;14.70;;;6.18;;
60014;SDS011;45867;52.480;6.056;2023-05-19T06:22:30;14.40;;;6.05;;
60014;SDS011;45867;52.480;6.056;2023-05-19T06:24:58;13.77;;;5.40;;
60014;SDS011;45867;52.480;6.056;2023-05-19T06:27:23;10.18;;;5.55;;
60014;SDS011;45867;52.480;6.056;2023-05-19T06:29:49;11.88;;;5.78;;
60014;SDS011;45867;52.480;6.056;2023-05-19T06:32:14;17.90;;;7.05;;
60014;SDS011;45867;52.480;6.056;2023-05-19T06:34:40;20.15;;;5.35;;
60014;SDS011;45867;52.480;6.056;2023-05-19T06:37:05;11.73;;;5.40;;
60014;SDS011;45867;52.480;6.056;2023-05-19T06:39:30;13.23;;;5.70;;
60014;SDS011;45867;52.480;6.056;2023-05-19T06:41:56;9.73;;;5.40;;
60014;SDS011;45867;52.480;6.056;2023-05-19T06:44:21;15.45;;;6.15;;
60014;SDS011;45867;52.480;6.056;2023-05-19T06:46:47;15.55;;;5.72;;
60014;SDS011;45867;52.480;6.056;2023-05-19T06:49:12;15.13;;;5.53;;
60014;SDS011;45867;52.480;6.056;2023-05-19T06:51:37;16.35;;;5.80;;
60014;SDS011;45867;52.480;6.056;2023-05-19T06:54:03;13.45;;;5.80;;
60014;SDS011;45867;52.480;6.056;2023-05-19T06:56:31;15.02;;;6.07;;
60014;SDS011;45867;52.480;6.056;2023-05-19T06:58:56;14.57;;;5.78;;
60014;SDS011;45867;52.480;6.056;2023-05-19T07:01:22;17.63;;;5.63;;
60014;SDS011;45867;52.480;6.056;2023-05-19T07:03:47;15.00;;;5.45;;
60014;SDS011;45867;52.480;6.056;2023-05-19T07:06:12;11.15;;;5.00;;
60014;SDS011;45867;52.480;6.056;2023-05-19T07:08:38;11.68;;;5.07;;
60014;SDS011;45867;52.480;6.056;2023-05-19T07:11:03;12.73;;;5.57;;
60014;SDS011;45867;52.480;6.056;2023-05-19T07:13:29;12.75;;;5.43;;
60014;SDS011;45867;52.480;6.056;2023-05-19T07:15:54;9.98;;;4.80;;
60014;SDS011;45867;52.480;6.056;2023-05-19T07:18:20;14.65;;;5.32;;
60014;SDS011;45867;52.480;6.056;2023-05-19T07:20:46;15.15;;;5.53;;
60014;SDS011;45867;52.480;6.056;2023-05-19T07:23:11;12.48;;;5.22;;
60014;SDS011;45867;52.480;6.056;2023-05-19T07:25:37;12.52;;;5.35;;
60014;SDS011;45867;52.480;6.056;2023-05-19T07:28:02;14.98;;;5.90;;
60014;SDS011;45867;52.480;6.056;2023-05-19T07:30:28;15.10;;;5.30;;
60014;SDS011;45867;52.480;6.056;2023-05-19T07:32:53;11.35;;;4.78;;
60014;SDS011;45867;52.480;6.056;2023-05-19T07:35:19;10.18;;;4.90;;
60014;SDS011;45867;52.480;6.056;2023-05-19T07:37:46;10.85;;;5.00;;
60014;SDS011;45867;52.480;6.056;2023-05-19T07:40:12;19.30;;;5.50;;
60014;SDS011;45867;52.480;6.056;2023-05-19T07:42:38;17.15;;;5.13;;
60014;SDS011;45867;52.480;6.056;2023-05-19T07:45:04;14.05;;;4.90;;
60014;SDS011;45867;52.480;6.056;2023-05-19T07:47:30;13.15;;;5.35;;
60014;SDS011;45867;52.480;6.056;2023-05-19T07:49:55;11.07;;;5.03;;
60014;SDS011;45867;52.480;6.056;2023-05-19T07:52:20;12.10;;;4.70;;
60014;SDS011;45867;52.480;6.056;2023-05-19T07:54:46;15.93;;;4.57;;
60014;SDS011;45867;52.480;6.056;2023-05-19T07:57:11;14.10;;;4.80;;
60014;SDS011;45867;52.480;6.056;2023-05-19T07:59:38;16.35;;;5.30;;
60014;SDS011;45867;52.480;6.056;2023-05-19T08:02:03;10.10;;;4.90;;
60014;SDS011;45867;52.480;6.056;2023-05-19T08:04:29;9.93;;;4.45;;
60014;SDS011;45867;52.480;6.056;2023-05-19T08:06:55;10.00;;;4.20;;
60014;SDS011;45867;52.480;6.056;2023-05-19T08:09:20;10.65;;;4.07;;
60014;SDS011;45867;52.480;6.056;2023-05-19T08:11:45;12.65;;;4.40;;
60014;SDS011;45867;52.480;6.056;2023-05-19T08:14:11;13.15;;;4.50;;
60014;SDS011;45867;52.480;6.056;2023-05-19T08:16:37;9.30;;;3.78;;
60014;SDS011;45867;52.480;6.056;2023-05-19T08:19:02;12.55;;;4.38;;
60014;SDS011;45867;52.480;6.056;2023-05-19T08:21:29;10.85;;;4.13;;
60014;SDS011;45867;52.480;6.056;2023-05-19T08:23:58;9.45;;;4.03;;
60014;SDS011;45867;52.480;6.056;2023-05-19T08:26:24;12.23;;;4.40;;
60014;SDS011;45867;52.480;6.056;2023-05-19T08:28:50;8.98;;;3.90;;
60014;SDS011;45867;52.480;6.056;2023-05-19T08:31:15;14.32;;;4.43;;
60014;SDS011;45867;52.480;6.056;2023-05-19T08:33:42;13.20;;;4.07;;
60014;SDS011;45867;52.480;6.056;2023-05-19T08:36:07;12.18;;;4.38;;
60014;SDS011;45867;52.480;6.056;2023-05-19T08:38:33;11.52;;;4.80;;
60014;SDS011;45867;52.480;6.056;2023-05-19T08:40:58;11.18;;;4.18;;
60014;SDS011;45867;52.480;6.056;2023-05-19T08:43:23;15.77;;;3.83;;
60014;SDS011;45867;52.480;6.056;2023-05-19T08:45:49;9.35;;;3.55;;
60014;SDS011;45867;52.480;6.056;2023-05-19T08:48:15;7.13;;;3.50;;
60014;SDS011;45867;52.480;6.056;2023-05-19T08:50:43;13.48;;;4.20;;
60014;SDS011;45867;52.480;6.056;2023-05-19T08:53:18;12.40;;;4.22;;
60014;SDS011;45867;52.480;6.056;2023-05-19T08:56:28;11.38;;;3.92;;
60014;SDS011;45867;52.480;6.056;2023-05-19T08:58:46;11.20;;;4.20;;
60014;SDS011;45867;52.480;6.056;2023-05-19T09:01:13;7.85;;;3.30;;
60014;SDS011;45867;52.480;6.056;2023-05-19T09:03:40;9.45;;;3.30;;
60014;SDS011;45867;52.480;6.056;2023-05-19T09:06:07;9.48;;;3.65;;
60014;SDS011;45867;52.480;6.056;2023-05-19T09:08:33;10.45;;;3.75;;
60014;SDS011;45867;52.480;6.056;2023-05-19T09:10:58;10.18;;;3.40;;
60014;SDS011;45867;52.480;6.056;2023-05-19T09:13:25;12.00;;;3.58;;
60014;SDS011;45867;52.480;6.056;2023-05-19T09:15:51;11.63;;;3.85;;
60014;SDS011;45867;52.480;6.056;2023-05-19T09:18:17;10.00;;;3.42;;
60014;SDS011;45867;52.480;6.056;2023-05-19T09:20:43;12.15;;;3.75;;
60014;SDS011;45867;52.480;6.056;2023-05-19T09:23:12;12.63;;;3.63;;
60014;SDS011;45867;52.480;6.056;2023-05-19T09:25:48;13.55;;;3.75;;
60014;SDS011;45867;52.480;6.056;2023-05-19T09:28:28;12.60;;;3.88;;
60014;SDS011;45867;52.480;6.056;2023-05-19T09:31:02;10.45;;;3.38;;
60014;SDS011;45867;52.480;6.056;2023-05-19T09:33:28;8.90;;;3.10;;
60014;SDS011;45867;52.480;6.056;2023-05-19T09:35:54;12.70;;;3.90;;
60014;SDS011;45867;52.480;6.056;2023-05-19T09:38:20;8.43;;;3.20;;
60014;SDS011;45867;52.480;6.056;2023-05-19T09:40:47;10.63;;;3.40;;
60014;SDS011;45867;52.480;6.056;2023-05-19T09:43:14;10.40;;;3.22;;
60014;SDS011;45867;52.480;6.056;2023-05-19T09:45:39;11.60;;;3.63;;
60014;SDS011;45867;52.480;6.056;2023-05-19T09:48:05;13.65;;;3.03;;
60014;SDS011;45867;52.480;6.056;2023-05-19T09:50:31;8.63;;;3.03;;
60014;SDS011;45867;52.480;6.056;2023-05-19T09:52:56;10.02;;;3.03;;
60014;SDS011;45867;52.480;6.056;2023-05-19T09:55:24;13.93;;;3.47;;
60014;SDS011;45867;52.480;6.056;2023-05-19T09:57:53;10.57;;;3.50;;
60014;SDS011;45867;52.480;6.056;2023-05-19T10:00:20;14.75;;;3.25;;
60014;SDS011;45867;52.480;6.056;2023-05-19T10:02:47;10.23;;;3.45;;
60014;SDS011;45867;52.480;6.056;2023-05-19T10:05:14;11.98;;;3.15;;
60014;SDS011;45867;52.480;6.056;2023-05-19T10:07:43;11.93;;;3.28;;
60014;SDS011;45867;52.480;6.056;2023-05-19T10:10:10;8.85;;;3.55;;
60014;SDS011;45867;52.480;6.056;2023-05-19T10:12:37;11.82;;;3.47;;
60014;SDS011;45867;52.480;6.056;2023-05-19T10:15:04;12.30;;;3.00;;
60014;SDS011;45867;52.480;6.056;2023-05-19T10:17:33;9.43;;;2.83;;
60014;SDS011;45867;52.480;6.056;2023-05-19T10:19:59;9.02;;;3.08;;
60014;SDS011;45867;52.480;6.056;2023-05-19T10:22:25;6.90;;;3.00;;
60014;SDS011;45867;52.480;6.056;2023-05-19T10:24:50;8.50;;;3.00;;
60014;SDS011;45867;52.480;6.056;2023-05-19T10:27:15;9.07;;;3.38;;
60014;SDS011;45867;52.480;6.056;2023-05-19T10:29:46;8.27;;;3.35;;
60014;SDS011;45867;52.480;6.056;2023-05-19T10:32:21;13.80;;;3.20;;
60014;SDS011;45867;52.480;6.056;2023-05-19T10:40:17;12.95;;;3.30;;
60014;SDS011;45867;52.480;6.056;2023-05-19T10:45:45;6.65;;;2.80;;
60014;SDS011;45867;52.480;6.056;2023-05-19T10:48:13;10.65;;;3.30;;
60014;SDS011;45867;52.480;6.056;2023-05-19T10:50:42;12.85;;;3.40;;
60014;SDS011;45867;52.480;6.056;2023-05-19T10:53:12;13.93;;;3.60;;
60014;SDS011;45867;52.480;6.056;2023-05-19T10:58:14;8.63;;;3.22;;
60014;SDS011;45867;52.480;6.056;2023-05-19T11:00:39;10.73;;;3.40;;
60014;SDS011;45867;52.480;6.056;2023-05-19T11:03:11;8.20;;;3.75;;
60014;SDS011;45867;52.480;6.056;2023-05-19T11:05:37;9.45;;;3.63;;
60014;SDS011;45867;52.480;6.056;2023-05-19T11:08:04;7.40;;;3.20;;
60014;SDS011;45867;52.480;6.056;2023-05-19T11:10:31;10.73;;;3.05;;
60014;SDS011;45867;52.480;6.056;2023-05-19T11:12:57;10.60;;;3.38;;
60014;SDS011;45867;52.480;6.056;2023-05-19T11:15:24;7.78;;;2.80;;
60014;SDS011;45867;52.480;6.056;2023-05-19T11:17:51;11.52;;;2.90;;
60014;SDS011;45867;52.480;6.056;2023-05-19T11:20:21;7.47;;;3.00;;
60014;SDS011;45867;52.480;6.056;2023-05-19T11:25:57;12.90;;;3.20;;
60014;SDS011;45867;52.480;6.056;2023-05-19T11:28:26;10.45;;;3.42;;
60014;SDS011;45867;52.480;6.056;2023-05-19T11:30:53;11.20;;;2.80;;
60014;SDS011;45867;52.480;6.056;2023-05-19T11:33:21;10.68;;;2.85;;
60014;SDS011;45867;52.480;6.056;2023-05-19T11:35:51;9.40;;;2.90;;
60014;SDS011;45867;52.480;6.056;2023-05-19T11:38:18;8.90;;;2.90;;
60014;SDS011;45867;52.480;6.056;2023-05-19T11:40:44;8.93;;;2.92;;
60014;SDS011;45867;52.480;6.056;2023-05-19T11:43:11;8.90;;;2.95;;
60014;SDS011;45867;52.480;6.056;2023-05-19T11:45:36;14.07;;;2.65;;
60014;SDS011;45867;52.480;6.056;2023-05-19T11:48:05;14.35;;;3.58;;
60014;SDS011;45867;52.480;6.056;2023-05-19T11:50:31;6.05;;;2.63;;
60014;SDS011;45867;52.480;6.056;2023-05-19T11:52:58;9.13;;;2.75;;
60014;SDS011;45867;52.480;6.056;2023-05-19T11:55:24;9.60;;;2.60;;
60014;SDS011;45867;52.480;6.056;2023-05-19T11:57:50;8.90;;;2.85;;
60014;SDS011;45867;52.480;6.056;2023-05-19T12:00:26;8.27;;;2.55;;
60014;SDS011;45867;52.480;6.056;2023-05-19T12:02:51;17.20;;;3.10;;
60014;SDS011;45867;52.480;6.056;2023-05-19T12:05:26;9.32;;;2.60;;
60014;SDS011;45867;52.480;6.056;2023-05-19T12:07:53;11.02;;;2.63;;
60014;SDS011;45867;52.480;6.056;2023-05-19T12:12:48;16.95;;;2.72;;
60014;SDS011;45867;52.480;6.056;2023-05-19T12:15:17;12.90;;;2.97;;
60014;SDS011;45867;52.480;6.056;2023-05-19T12:17:44;8.43;;;2.42;;
60014;SDS011;45867;52.480;6.056;2023-05-19T12:20:16;11.40;;;3.20;;
60014;SDS011;45867;52.480;6.056;2023-05-19T12:22:43;11.65;;;3.00;;
60014;SDS011;45867;52.480;6.056;2023-05-19T12:25:08;8.98;;;2.92;;
60014;SDS011;45867;52.480;6.056;2023-05-19T12:27:34;12.27;;;2.75;;
60014;SDS011;45867;52.480;6.056;2023-05-19T12:30:02;10.30;;;3.13;;
60014;SDS011;45867;52.480;6.056;2023-05-19T12:32:32;11.18;;;2.58;;
60014;SDS011;45867;52.480;6.056;2023-05-19T12:34:59;7.57;;;2.40;;
60014;SDS011;45867;52.480;6.056;2023-05-19T12:37:28;10.85;;;2.75;;
60014;SDS011;45867;52.480;6.056;2023-05-19T12:39:54;8.50;;;2.40;;
60014;SDS011;45867;52.480;6.056;2023-05-19T12:42:21;11.38;;;2.45;;
60014;SDS011;45867;52.480;6.056;2023-05-19T12:44:48;9.63;;;2.60;;
60014;SDS011;45867;52.480;6.056;2023-05-19T12:47:16;8.32;;;2.97;;
60014;SDS011;45867;52.480;6.056;2023-05-19T12:50:19;14.88;;;2.70;;
60014;SDS011;45867;52.480;6.056;2023-05-19T12:52:45;13.20;;;2.80;;
60014;SDS011;45867;52.480;6.056;2023-05-19T12:55:12;8.48;;;2.55;;
60014;SDS011;45867;52.480;6.056;2023-05-19T12:57:47;10.65;;;3.03;;
60014;SDS011;45867;52.480;6.056;2023-05-19T13:00:23;7.80;;;2.65;;
60014;SDS011;45867;52.480;6.056;2023-05-19T13:05:25;10.02;;;2.80;;
60014;SDS011;45867;52.480;6.056;2023-05-19T13:07:56;8.07;;;2.60;;
60014;SDS011;45867;52.480;6.056;2023-05-19T13:10:24;8.65;;;2.63;;
60014;SDS011;45867;52.480;6.056;2023-05-19T13:12:55;13.40;;;2.60;;
60014;SDS011;45867;52.480;6.056;2023-05-19T13:15:22;10.20;;;2.58;;
60014;SDS011;45867;52.480;6.056;2023-05-19T13:17:50;6.35;;;2.42;;
60014;SDS011;45867;52.480;6.056;2023-05-19T13:20:15;10.63;;;2.92;;
60014;SDS011;45867;52.480;6.056;2023-05-19T13:22:40;9.32;;;2.33;;
60014;SDS011;45867;52.480;6.056;2023-05-19T13:25:07;5.88;;;2.20;;
60014;SDS011;45867;52.480;6.056;2023-05-19T13:27:33;10.30;;;2.35;;
60014;SDS011;45867;52.480;6.056;2023-05-19T13:29:59;11.32;;;2.70;;
60014;SDS011;45867;52.480;6.056;2023-05-19T13:32:25;9.45;;;3.15;;
60014;SDS011;45867;52.480;6.056;2023-05-19T13:34:50;9.40;;;2.40;;
60014;SDS011;45867;52.480;6.056;2023-05-19T13:37:15;8.30;;;2.47;;
60014;SDS011;45867;52.480;6.056;2023-05-19T13:39:42;6.38;;;2.60;;
60014;SDS011;45867;52.480;6.056;2023-05-19T13:42:07;9.27;;;2.58;;
60014;SDS011;45867;52.480;6.056;2023-05-19T13:44:33;7.30;;;2.72;;
60014;SDS011;45867;52.480;6.056;2023-05-19T13:46:58;9.88;;;2.83;;
60014;SDS011;45867;52.480;6.056;2023-05-19T13:49:23;11.02;;;2.72;;
60014;SDS011;45867;52.480;6.056;2023-05-19T13:51:49;9.50;;;2.42;;
60014;SDS011;45867;52.480;6.056;2023-05-19T13:54:14;7.88;;;2.42;;
60014;SDS011;45867;52.480;6.056;2023-05-19T13:56:40;9.18;;;2.65;;
60014;SDS011;45867;52.480;6.056;2023-05-19T13:59:07;11.45;;;2.65;;
60014;SDS011;45867;52.480;6.056;2023-05-19T14:01:32;10.15;;;2.72;;
60014;SDS011;45867;52.480;6.056;2023-05-19T14:03:57;8.30;;;2.63;;
60014;SDS011;45867;52.480;6.056;2023-05-19T14:06:23;6.32;;;2.70;;
60014;SDS011;45867;52.480;6.056;2023-05-19T14:08:48;8.90;;;2.80;;
60014;SDS011;45867;52.480;6.056;2023-05-19T14:11:17;5.90;;;2.25;;
60014;SDS011;45867;52.480;6.056;2023-05-19T14:13:49;14.55;;;3.05;;
60014;SDS011;45867;52.480;6.056;2023-05-19T14:16:15;12.00;;;2.55;;
60014;SDS011;45867;52.480;6.056;2023-05-19T14:18:41;6.57;;;2.53;;
60014;SDS011;45867;52.480;6.056;2023-05-19T14:21:07;11.95;;;2.67;;
60014;SDS011;45867;52.480;6.056;2023-05-19T14:23:33;11.40;;;3.13;;
60014;SDS011;45867;52.480;6.056;2023-05-19T14:25:59;13.27;;;3.17;;
60014;SDS011;45867;52.480;6.056;2023-05-19T14:28:24;6.57;;;3.38;;
60014;SDS011;45867;52.480;6.056;2023-05-19T14:30:50;9.65;;;4.35;;
60014;SDS011;45867;52.480;6.056;2023-05-19T14:33:19;13.43;;;3.10;;
60014;SDS011;45867;52.480;6.056;2023-05-19T14:35:45;15.80;;;3.35;;
60014;SDS011;45867;52.480;6.056;2023-05-19T14:38:11;10.18;;;3.00;;
60014;SDS011;45867;52.480;6.056;2023-05-19T14:40:36;6.50;;;2.80;;
60014;SDS011;45867;52.480;6.056;2023-05-19T14:43:02;10.55;;;2.67;;
60014;SDS011;45867;52.480;6.056;2023-05-19T14:45:27;9.00;;;3.55;;
60014;SDS011;45867;52.480;6.056;2023-05-19T14:47:53;9.93;;;3.05;;
60014;SDS011;45867;52.480;6.056;2023-05-19T14:50:18;11.57;;;3.08;;
60014;SDS011;45867;52.480;6.056;2023-05-19T14:52:44;7.72;;;2.70;;
60014;SDS011;45867;52.480;6.056;2023-05-19T14:55:09;7.35;;;3.25;;
60014;SDS011;45867;52.480;6.056;2023-05-19T14:57:35;14.88;;;3.30;;
60014;SDS011;45867;52.480;6.056;2023-05-19T15:00:00;9.20;;;2.88;;
60014;SDS011;45867;52.480;6.056;2023-05-19T15:02:25;12.10;;;3.40;;
60014;SDS011;45867;52.480;6.056;2023-05-19T15:04:51;9.98;;;3.22;;
60014;SDS011;45867;52.480;6.056;2023-05-19T15:07:16;6.70;;;3.00;;
60014;SDS011;45867;52.480;6.056;2023-05-19T15:09:41;11.38;;;3.05;;
60014;SDS011;45867;52.480;6.056;2023-05-19T15:12:07;12.95;;;3.13;;
60014;SDS011;45867;52.480;6.056;2023-05-19T15:14:32;9.30;;;2.85;;